Sungshan, Taiwan

12:51 PM CST on June 02, 2015 (GMT +0800)
Sungshan | | Change Station
CLOSE
Current Station
Airport
Location: Sungshan,
Elevation: 20 ft
Nearby Weather Stations

Elev 20 ft 25.07 °N, 121.55 °E | Updated 21 minutes ago

Mostly Cloudy
Mostly Cloudy
93 °F
Feels Like 102 °F
N
10
Wind Variable Wind from WNW

Today
High -- | Low -- °F
--% Chance of Precip.
Yesterday
High -- | Low -- °F
Precip. -- in
5:03 AM 6:39 PM
Full, 100% visible
Pressure 29.80 in
Visibility 6.2 miles
Clouds Few 2000 ft
Scattered Clouds 4500 ft
Mostly Cloudy 25000 ft
Heat Index 102 °F
Dew Point 73 °F
Humidity 52%
Rainfall 0.00 in
Snow Depth Not available.
UV 9 out of 12
Pollen Not available.
Air Quality Not available.
Flu Activity Not available.
METAR RCSS 020430Z 30009KT 270V350 9999 FEW020 SCT045 BKN250 34/23 Q1009 NOSIG RMK VRB06KT/R10 A2981

More Conditions Fewer Conditions

Pressure 29.80 in
Visibility 6.2 miles
Clouds Few 2000 ft
Scattered Clouds 4500 ft
Mostly Cloudy 25000 ft
Heat Index 102 °F
Dew Point 73 °F
Humidity 52%
Rainfall 0.00 in
Snow Depth Not available.
UV 9 out of 12
Pollen Not available.
Air Quality Not available.
Flu Activity Not available.
METAR RCSS 020430Z 30009KT 270V350 9999 FEW020 SCT045 BKN250 34/23 Q1009 NOSIG RMK VRB06KT/R10 A2981

More Conditions Fewer Conditions

10-Day Weather Forecast

Almanac

Astronomy

Jun. 02, 2015 Rise Set
Actual Time
Civil Twilight
Nautical Twilight
Astronomical Twilight
Moon
Length of Visible Light
Length of Day
Tomorrow will be .
, % of the Moon is Illuminated

Today's Extremes

Country Highs Country Lows

Community

WunderPhotos

Upload Photos

1,825,913 photos uploaded!

WunderBlogs® & News

Nearby

Air Quality

  Air Quality AQ Index Pollutant
Not available.

Snow Depth

Station Depth Elevation

Earthquake Activity

City Distance Mag. Time & Date
Minimum magnitude displayed is 2.5.

Coastal Water Temperatures

Place Temperature

Stations

Nearby Weather Stations

Station Location Temp. Windchill Dew Point Humidity Wind Precip. Elev Updated Type